Midlothian, Texas
Current Conditions -  °F | °C
As of 7:35 PM on Friday 24 Oct 2014 (Local Time) from KJWY Reporting Station
Clear Clear  
Wind Chill: 74°   Ceiling: Unl
Heat Index: 74°   Visibility: 10mi
Dew Point: 61°   Wind: 0mph
Humidity: 65%   Direction: NA
Pressure: 30.1"   Gusts: NA
Location:  32.48°N, 96.99°W
Report Text: KJWY 250035Z AUTO 00000KT 10SM CLR 23/16 A3010 RMK AO2 T02320162
Loading
Personal Weather Stations






























Interactive Weather Map
Tropical Storm Tracking
New forecast layout! Learn more

10-Day Weather Forecast

Advertisements
Track Severe Weather on mobile